Station: Beerburrum  

  Atmospheric Gas Attenuation - ITU Rec 676-11   ----------------- dB/100km -----------------
Date Time Temp RH % AH g/m3 Dew Point Wind Direction Speed kph Gust kph Barometer mB Rainfall Since 9am 24GHz 47GHz 76GHz 122GHz 134GHz 241GHz
08/05 12:30 21.1 32 5.9 3.8 4 9 1013.1 0 13.6 20.1 27.0 70.4 58.9 200.9
08/05 12:20 20.8 33 5.97 4 7 9 1013.1 0 13.7 20.3 27.3 71.3 59.9 204.3
08/05 12:10 20.5 31 5.52 2.8 7 7 1013.1 0 12.8 19.7 26.0 67.6 55.2 187.9
08/05 12:00 20 32 5.53 2.8 7 15 1013.1 0 12.9 19.8 26.2 68.1 55.7 189.4
08/05 11:50 20.3 37 6.51 5.1 7 7 1013.1 0 14.9 21.1 29.3 76.5 66.2 226.6
08/05 11:40 20.2 36 6.29 4.7 7 9 1013.1 0 14.4 20.8 28.6 74.6 63.9 218.2
08/05 11:30 20 37 6.39 4.9 6 11 1013.1 0 14.7 21.0 29.0 75.7 65.1 222.7
08/05 11:20 19.7 40 6.79 5.7 6 7 1013.1 0 15.5 21.6 30.5 79.7 69.9 239.4
08/05 11:10 19.7 36 6.11 4.2 6 7 1013.1 0 14.1 20.7 28.2 73.5 62.3 212.5
08/05 11:00 19.5 36 6.04 4 6 9 1013.1 0 13.9 20.6 28.0 73.0 61.6 210.3
08/05 10:50 19.4 37 6.17 4.3 6 7 1013.1 0 14.2 20.8 28.5 74.3 63.2 215.6
08/05 10:40 19.3 37 6.14 4.3 7 9 1013.1 0 14.2 20.8 28.4 74.1 62.9 214.7
08/05 10:30 18.4 37 5.82 3.5 7 9 1013.1 0 13.5 20.6 27.6 72.0 60.0 204.4
08/05 10:20 19.1 41 6.72 5.6 6 6 1013.1 0 15.4 21.7 30.5 79.6 69.6 238.3
08/05 10:10 17.9 41 6.26 4.5 6 7 1013.1 0 14.5 21.3 29.3 76.5 65.4 223.2
08/05 10:00 18.1 43 6.64 5.3 6 13 1013.1 0 15.2 21.8 30.6 79.8 69.6 238.0
08/05 09:50 18 44 6.76 5.6 7 9 1013.1 0 15.5 22.0 31.0 81.1 71.1 243.2
08/05 09:40 17.6 44 6.6 5.2 6 9 1013.1 0 15.2 21.8 30.6 80.0 69.5 237.8
08/05 09:30 17.2 44 6.44 4.9 4 11 1013.1 0 14.9 21.7 30.2 78.8 68.0 232.5
08/05 09:20 16.6 44 6.22 4.3 4 6 1013.1 0 14.4 21.5 29.6 77.3 66.0 225.2
08/05 09:10 16.3 47 6.52 5 4 6 1013.1 0 15.1 22.0 30.8 80.5 69.7 238.4
08/05 09:00 16 47 6.4 4.7 6 9 1013.1 0 14.8 21.9 30.5 79.6 68.6 234.3
08/05 08:50 15.4 50 6.57 5 4 6 1013.1 0 15.2 22.3 31.3 81.9 71.1 243.1
08/05 08:40 15 52 6.67 5.2 4 6 1013.1 0 15.4 22.6 31.9 83.2 72.7 248.6
08/05 08:30 14.5 52 6.47 4.8 2 6 1013.1 0 15.0 22.4 31.3 81.8 70.7 241.6
08/05 08:20 14 51 6.15 4 4 7 1013.1 0 14.4 22.1 30.3 79.2 67.3 229.6
08/05 08:10 13.7 54 6.39 4.6 6 7 1013.1 0 14.9 22.5 31.3 81.8 70.5 240.6
08/05 08:00 13.2 53 6.09 3.8 4 9 1013.1 0 14.3 22.2 30.4 79.4 67.3 229.3
08/05 07:50 13 62 7.03 5.9 6 7 1013.1 0 16.3 23.6 34.0 89.0 79.0 270.6
08/05 07:40 12.4 57 6.23 4.1 4 9 1013.1 0 14.6 22.6 31.2 81.6 69.7 237.6
08/05 07:30 11.5 61 6.3 4.3 4 11 1013.1 0 14.8 22.9 31.9 83.2 71.3 243.4
08/05 07:20 10.8 62 6.13 3.8 6 6 1013.1 0 14.4 22.8 31.5 82.2 69.8 238.0
08/05 07:10 10.8 62 6.13 3.8 6 6 1013.1 0 14.4 22.8 31.5 82.2 69.8 238.0
08/05 07:00 10.5 61 5.92 3.3 4 9 1013.1 0 14.0 22.6 30.8 80.4 67.5 229.7
08/05 06:50 10.5 62 6.01 3.5 7 11 1013.1 0 14.2 22.7 31.1 81.3 68.6 233.6
08/05 06:40 10.6 63 6.15 3.9 0 0 1013.1 0 14.5 22.9 31.6 82.6 70.3 239.5
08/05 06:30 10.6 59 5.76 2.9 4 7 1013.1 0 13.7 22.3 30.2 78.7 65.4 222.5
08/05 06:20 10.6 61 5.96 3.4 4 6 1013.1 0 14.1 22.6 30.9 80.7 67.9 231.2
08/05 06:10 10.7 63 6.19 4 2 4 1013.1 0 14.6 22.9 31.8 82.9 70.7 241.0
08/05 06:00 10.9 61 6.07 3.7 2 9 1013.1 0 14.3 22.7 31.2 81.5 69.0 235.1
08/05 05:50 11 63 6.31 4.2 4 6 1013.1 0 14.8 23.0 32.1 83.8 71.9 245.3
08/05 05:40 11.2 59 5.98 3.5 4 7 1013.1 0 14.1 22.5 30.8 80.3 67.6 230.3
08/05 05:30 11.1 60 6.04 3.6 4 7 1013.1 0 14.2 22.6 31.0 81.0 68.5 233.2
08/05 05:20 11.1 60 6.04 3.6 2 6 1013.1 0 14.2 22.6 31.0 81.0 68.5 233.2
08/05 05:10 11 60 6.01 3.5 4 6 1013.1 0 14.2 22.6 31.0 80.8 68.2 232.2
08/05 05:00 11.1 62 6.25 4.1 2 7 1013.1 0 14.7 22.9 31.8 83.1 71.1 242.4
08/05 04:50 11.1 59 5.94 3.4 0 0 1013.1 0 14.0 22.4 30.7 80.0 67.2 228.9
08/05 04:40 10.9 63 6.27 4.1 0 0 1013.1 0 14.7 23.0 32.0 83.5 71.5 243.9
08/05 04:30 11 64 6.41 4.5 0 0 1013.1 0 15.0 23.2 32.5 84.8 73.2 249.7
08/05 04:20 11 64 6.41 4.5 0 0 1013.1 0 15.0 23.2 32.5 84.8 73.2 249.7
08/05 04:10 11.1 64 6.45 4.6 0 0 1013.1 0 15.1 23.2 32.6 85.2 73.6 251.2
08/05 04:00 11.1 64 6.45 4.6 0 4 1013.1 0 15.1 23.2 32.6 85.2 73.6 251.2
08/05 03:50 11.3 62 6.33 4.3 2 6 1013.1 0 14.9 23.0 32.0 83.7 71.9 245.3
08/05 03:40 11.4 63 6.47 4.6 0 0 1013.1 0 15.1 23.2 32.5 85.0 73.6 251.1
08/05 03:30 11.7 63 6.59 4.9 0 0 1013.1 0 15.4 23.3 32.9 85.9 74.8 255.5
08/05 03:20 12.1 64 6.86 5.5 0 0 1013.1 0 15.9 23.6 33.7 88.3 77.8 266.1
08/05 03:10 12.4 61 6.67 5.1 0 0 1013.1 0 15.5 23.2 32.9 86.0 75.1 256.7
08/05 03:00 12.7 59 6.57 4.9 2 7 1013.1 0 15.3 23.0 32.4 84.7 73.6 251.4
08/05 02:50 12.9 63 7.1 6 7 7 1013.1 0 16.4 23.8 34.3 89.8 80.0 274.0
08/05 02:40 13.1 57 6.5 4.8 4 6 1013.1 0 15.1 22.8 32.0 83.5 72.4 247.1
08/05 02:30 13.1 57 6.5 4.8 4 9 1013.1 0 15.1 22.8 32.0 83.5 72.4 247.1
08/05 02:20 13.5 58 6.78 5.4 0 0 1013.1 0 15.7 23.1 32.9 85.9 75.4 258.0
08/05 02:10 13.8 54 6.43 4.7 4 6 1013.1 0 15.0 22.5 31.4 82.1 70.9 242.0
08/05 02:00 13.6 61 7.18 6.2 6 13 1013.1 0 16.6 23.7 34.3 89.8 80.3 275.2
08/05 01:50 14 57 6.88 5.6 6 7 1013.1 0 15.9 23.1 33.0 86.4 76.2 260.7
08/05 01:40 14.1 60 7.28 6.5 6 7 1013.1 0 16.8 23.7 34.5 90.3 81.1 277.8
08/05 01:30 14.4 58 7.17 6.3 4 9 1013.1 0 16.5 23.5 34.0 88.9 79.4 272.0
08/05 01:20 14.7 55 6.92 5.8 4 6 1013.1 0 16.0 23.0 32.9 86.0 76.0 260.2
08/05 01:10 14.8 57 7.22 6.4 6 6 1013.1 0 16.6 23.5 34.0 88.9 79.6 272.8
08/05 01:00 14.7 59 7.43 6.8 6 9 1013.1 0 17.1 23.8 34.8 91.1 82.3 282.3
08/05 00:50 15.1 57 7.35 6.7 7 15 1013.1 0 16.9 23.6 34.3 89.9 80.9 277.4
08/05 00:40 15.4 57 7.49 6.9 9 13 1013.1 0 17.2 23.7 34.7 90.9 82.3 282.4
08/05 00:30 15.4 58 7.62 7.2 6 11 1013.1 0 17.4 23.9 35.2 92.3 83.9 288.1
08/05 00:20 15.7 60 8.03 8 6 7 1013.1 0 18.3 24.5 36.6 96.1 88.8 305.0
08/05 00:10 15.9 55 7.45 6.9 6 7 1013.1 0 17.0 23.5 34.4 90.0 81.3 278.9
08/05 00:00 16.2 55 7.58 7.2 6 9 1013.1 0 17.3 23.6 34.7 90.9 82.6 283.5
07/05 23:50 16.3 54 7.49 7 4 6 1013.1 0 17.1 23.5 34.3 89.9 81.4 279.3
07/05 23:40 16.4 53 7.4 6.8 6 7 1013.1 0 16.9 23.3 34.0 88.9 80.2 275.1
07/05 23:30 16.6 56 7.91 7.8 6 9 1013.1 0 18.0 24.0 35.8 93.8 86.3 296.3
07/05 23:20 17 50 7.23 6.5 6 6 1013.1 0 16.5 22.9 33.1 86.6 77.5 265.8
07/05 23:10 16.8 52 7.43 6.9 7 9 1013.1 0 17.0 23.3 33.9 88.8 80.2 275.0
07/05 23:00 16.6 53 7.49 7 4 9 1013.1 0 17.1 23.4 34.2 89.6 81.1 278.2
07/05 22:50 16.5 58 8.14 8.2 0 0 1013.1 0 18.5 24.4 36.7 96.2 89.2 306.7
07/05 22:40 16.6 55 7.77 7.5 6 6 1013.1 0 17.7 23.8 35.3 92.4 84.5 290.3
07/05 22:30 16.6 55 7.77 7.5 4 9 1013.1 0 17.7 23.8 35.3 92.4 84.5 290.3
07/05 22:20 16.7 54 7.67 7.4 6 7 1013.1 0 17.5 23.6 34.8 91.3 83.2 285.6
07/05 22:10 16.5 53 7.44 6.9 0 0 1013.1 0 17.0 23.3 34.1 89.2 80.6 276.4
07/05 22:00 17.1 49 7.13 6.3 2 6 1013.1 0 16.3 22.7 32.7 85.5 76.3 261.3
07/05 21:50 17.1 53 7.71 7.5 4 6 1013.1 0 17.5 23.6 34.8 91.2 83.3 285.9
07/05 21:40 16.9 56 8.05 8.1 0 0 1013.1 0 18.3 24.2 36.2 94.8 87.7 301.3
07/05 21:30 17.2 53 7.76 7.5 2 7 1013.1 0 17.6 23.6 35.0 91.6 83.8 287.7
07/05 21:20 17.2 55 8.05 8.1 2 6 1013.1 0 18.3 24.1 36.0 94.5 87.3 300.2
07/05 21:10 17.3 52 7.66 7.4 6 7 1013.1 0 17.4 23.5 34.6 90.5 82.4 283.0
07/05 21:00 16.9 57 8.2 8.3 0 0 1013.1 0 18.6 24.4 36.7 96.3 89.5 307.8
07/05 20:50 16.8 65 9.29 10.2 0 0 1013.1 0 20.9 26.1 41.0 107.7 103.5 356.8
07/05 20:40 16.9 63 9.06 9.8 4 6 1013.1 0 20.4 25.7 40.1 105.2 100.4 346.0
07/05 20:30 17.1 65 9.46 10.5 0 6 1013.1 0 21.3 26.3 41.5 109.1 105.3 363.2
07/05 20:20 17.6 54 8.1 8.2 0 0 1013.1 0 18.3 24.1 36.1 94.5 87.5 300.8
07/05 20:10 18 51 7.83 7.7 0 0 1013.1 0 17.8 23.5 34.9 91.4 83.8 287.8
07/05 20:00 18.3 49 7.66 7.4 0 0 1013.1 0 17.4 23.2 34.1 89.4 81.4 279.5

Last Refresh: 08-May-2026 12:09:23

Bureau of Meteorology